Terminal Aerodrome Forecast
Issued by NWS Omaha/Valley, NE

Home | Current Version | Previous Version | Text Only | Print | Product List | Glossary On
Versions: 1 2 3 4 5 6 7 8 9 10 11 12 13 14 15 16 17 18 19 20 21 22 23 24 25 26 27 28 29 30 31 32 33 34 35 36 37 38 39 40
000
FTUS43 KOAX 140313 AAB
TAFLNK
TAF AMD
KLNK 140313Z 1403/1424 VRB05KT P6SM SCT100
     FM140700 36006KT P6SM BKN080
      TEMPO 1407/1411 3SM TSRA OVC040CB
     FM141200 02010KT P6SM SCT040 BKN100
     FM141600 36014G23KT P6SM SCT040
      TEMPO 1421/1424 BKN040=

USA.gov is the U.S. government's official web portal to all federal, state and local government web resources and services.